Time;durP1;ratioP1;P1;durP2;ratioP2;P2;SDS_P1;SDS_P2;PMS_P1;PMS_P2;Temp;Humidity;BMP_temperature;BMP_pressure;BME280_temperature;BME280_humidity;BME280_pressure;Samples;Min_cycle;Max_cycle;Signal;HPM_P1;HPM_P2
2023/07/20 00:00:26;;;;;;;8.82;2.65;;;;;;;24.38;63.23;94864.31;5002027;28;20229;-72
2023/07/20 00:02:52;;;;;;;8.75;2.50;;;;;;;24.48;63.01;94875.66;5016077;28;20229;-71
2023/07/20 00:05:24;;;;;;;8.77;2.47;;;;;;;24.69;61.82;94865.50;5017962;28;20230;-71
2023/07/20 00:07:51;;;;;;;8.00;2.83;;;;;;;24.69;61.55;94858.25;5019100;28;20248;-71
2023/07/20 00:10:17;;;;;;;7.30;2.80;;;;;;;24.89;60.87;94851.84;5015609;28;20236;-71
2023/07/20 00:12:47;;;;;;;11.05;2.65;;;;;;;24.87;61.28;94855.91;5021851;28;20256;-71
2023/07/20 00:15:13;;;;;;;9.52;2.78;;;;;;;24.72;62.14;94860.34;5024667;28;20895;-71
2023/07/20 00:17:39;;;;;;;8.75;2.80;;;;;;;24.79;61.94;94861.91;5017484;28;20248;-71
2023/07/20 00:20:06;;;;;;;10.15;3.10;;;;;;;24.97;61.52;94866.47;5017362;28;20298;-71
2023/07/20 00:22:31;;;;;;;10.35;2.90;;;;;;;25.03;60.67;94870.69;5031337;28;20320;-81
2023/07/20 00:24:57;;;;;;;11.35;2.78;;;;;;;24.86;60.95;94873.88;5036245;28;20233;-81
2023/07/20 00:27:22;;;;;;;7.57;2.88;;;;;;;24.80;61.42;94880.38;5034175;28;20233;-81
2023/07/20 00:29:48;;;;;;;8.60;2.90;;;;;;;24.80;60.69;94875.00;5001529;28;20256;-81
2023/07/20 00:32:13;;;;;;;8.25;2.80;;;;;;;24.88;61.29;94878.94;5035814;28;20243;-81
2023/07/20 00:34:39;;;;;;;11.50;2.85;;;;;;;24.69;63.47;94881.56;5016850;28;20233;-81
2023/07/20 00:37:04;;;;;;;7.40;2.70;;;;;;;24.59;63.96;94877.13;5034303;28;20950;-81
2023/07/20 00:39:30;;;;;;;10.13;2.80;;;;;;;24.50;65.27;94880.75;4999232;28;20269;-81
2023/07/20 00:41:55;;;;;;;7.28;2.60;;;;;;;24.30;67.18;94867.59;5020918;28;20758;-79
2023/07/20 00:44:21;;;;;;;9.05;2.72;;;;;;;24.15;68.14;94876.59;5004250;28;20707;-80
2023/07/20 00:46:46;;;;;;;8.75;2.80;;;;;;;24.12;68.82;94868.38;5026796;28;20663;-80
2023/07/20 00:49:12;;;;;;;9.30;2.78;;;;;;;24.04;69.40;94869.75;5033467;28;20236;-79
2023/07/20 00:51:37;;;;;;;8.93;2.78;;;;;;;23.89;70.59;94870.72;4990620;28;20685;-80
2023/07/20 00:54:03;;;;;;;7.25;2.83;;;;;;;23.80;71.00;94861.72;5031093;28;20229;-81
2023/07/20 00:56:28;;;;;;;13.13;2.92;;;;;;;23.83;70.92;94852.34;5008481;28;20236;-80
2023/07/20 00:58:54;;;;;;;9.18;2.75;;;;;;;23.81;70.59;94843.81;5004500;28;20264;-80
2023/07/20 01:01:20;;;;;;;9.20;2.75;;;;;;;23.76;71.76;94849.19;4998350;28;20253;-81
2023/07/20 01:03:45;;;;;;;10.77;2.58;;;;;;;23.85;70.94;94844.81;5013921;28;20242;-81
2023/07/20 01:06:46;;;;;;;6.63;2.85;;;;;;;23.76;71.58;94842.00;5009714;28;20229;-81
2023/07/20 01:09:13;;;;;;;10.40;2.90;;;;;;;23.64;72.41;94854.94;5050282;28;20744;-80
2023/07/20 01:11:46;;;;;;;9.90;2.70;;;;;;;23.72;72.19;94862.31;5031121;28;20221;-80
2023/07/20 01:14:11;;;;;;;13.73;3.17;;;;;;;23.76;71.87;94863.38;5047478;28;20319;-81
2023/07/20 01:16:37;;;;;;;11.52;2.53;;;;;;;23.80;71.18;94875.09;5018545;28;20856;-80
2023/07/20 01:19:02;;;;;;;9.23;2.60;;;;;;;23.72;71.73;94864.19;5017028;28;20233;-81
2023/07/20 01:21:33;;;;;;;9.70;2.88;;;;;;;23.75;71.46;94871.66;5029672;28;20241;-80
2023/07/20 01:24:09;;;;;;;10.43;2.63;;;;;;;23.48;72.54;94866.81;5028365;28;20221;-82
2023/07/20 01:26:41;;;;;;;8.32;2.58;;;;;;;23.74;71.28;94854.81;5013749;28;20306;-81
2023/07/20 01:29:50;;;;;;;10.35;2.58;;;;;;;23.47;72.35;94848.41;5032660;28;20270;-80
2023/07/20 01:32:16;;;;;;;8.27;2.80;;;;;;;23.36;72.45;94861.03;5030672;28;20748;-81
2023/07/20 01:34:42;;;;;;;8.32;2.75;;;;;;;23.01;74.01;94862.09;5027468;28;21018;-80
2023/07/20 01:37:07;;;;;;;8.00;2.50;;;;;;;23.27;72.85;94858.16;5022537;28;20242;-80
2023/07/20 01:39:33;;;;;;;7.28;2.53;;;;;;;23.49;72.10;94867.63;5018298;28;20312;-81
2023/07/20 01:41:58;;;;;;;7.10;2.60;;;;;;;23.47;72.29;94869.78;4997867;28;20222;-81
2023/07/20 01:44:24;;;;;;;10.98;2.50;;;;;;;23.30;72.69;94856.81;5016961;28;20272;-80
2023/07/20 01:46:49;;;;;;;9.45;2.70;;;;;;;23.20;73.02;94854.22;5018790;28;20805;-81
2023/07/20 01:49:15;;;;;;;12.73;2.65;;;;;;;23.06;73.86;94862.06;5035774;28;21022;-81
2023/07/20 01:51:41;;;;;;;8.43;2.58;;;;;;;22.99;74.02;94853.59;5003718;28;20225;-81
2023/07/20 01:54:06;;;;;;;10.15;2.70;;;;;;;22.99;74.23;94852.78;5016487;28;20295;-80
2023/07/20 01:56:31;;;;;;;9.43;2.58;;;;;;;22.89;74.63;94858.97;5015666;28;20230;-80
2023/07/20 01:58:57;;;;;;;7.72;2.90;;;;;;;22.93;74.22;94856.56;5026340;28;20229;-81
2023/07/20 02:01:22;;;;;;;10.30;2.60;;;;;;;22.90;74.31;94854.44;4998607;28;20920;-81
2023/07/20 02:03:48;;;;;;;8.95;3.10;;;;;;;22.98;74.24;94851.97;5019473;28;20236;-82
2023/07/20 02:06:13;;;;;;;8.50;2.60;;;;;;;23.09;73.63;94850.84;5017096;28;20237;-79
2023/07/20 02:08:39;;;;;;;9.82;2.85;;;;;;;22.96;73.91;94858.66;5031979;28;20229;-80
2023/07/20 02:11:04;;;;;;;11.90;2.78;;;;;;;22.87;74.10;94849.66;5002133;28;20260;-81
2023/07/20 02:13:30;;;;;;;11.50;2.75;;;;;;;22.76;74.69;94843.56;5016984;28;20840;-81
2023/07/20 02:15:55;;;;;;;8.88;2.50;;;;;;;22.78;74.26;94847.56;5003659;28;20228;-81
2023/07/20 02:18:21;;;;;;;7.70;2.83;;;;;;;22.64;74.89;94846.59;5030676;28;20240;-80
2023/07/20 02:20:46;;;;;;;12.27;3.15;;;;;;;22.72;74.37;94843.34;5009258;28;20673;-81
2023/07/20 02:23:12;;;;;;;9.15;2.88;;;;;;;22.64;74.99;94848.47;5015429;28;21059;-80
2023/07/20 02:25:38;;;;;;;8.35;2.58;;;;;;;22.68;74.93;94850.31;5015086;28;20665;-81
2023/07/20 02:28:04;;;;;;;11.38;2.65;;;;;;;22.74;75.10;94845.72;5028671;28;20221;-80
2023/07/20 02:30:29;;;;;;;9.70;2.78;;;;;;;22.64;75.55;94843.91;5008908;28;20252;-81
2023/07/20 02:32:58;;;;;;;9.02;3.25;;;;;;;22.43;76.25;94846.94;5028831;28;20229;-80
2023/07/20 02:35:23;;;;;;;9.07;3.08;;;;;;;22.45;76.41;94840.25;5029612;28;20231;-80
2023/07/20 02:37:49;;;;;;;7.57;2.88;;;;;;;22.63;76.10;94837.00;4997617;28;20221;-81
2023/07/20 02:40:14;;;;;;;9.75;2.83;;;;;;;22.64;76.39;94835.13;5015077;28;20225;-80
2023/07/20 02:42:40;;;;;;;12.52;3.25;;;;;;;;;;5031832;28;20313;-81
2023/07/20 02:45:06;;;;;;;11.63;3.17;;;;;;;22.44;77.76;94822.69;5018063;28;20294;-81
2023/07/20 02:47:32;;;;;;;7.60;3.05;;;;;;;22.64;77.13;94819.91;4998186;28;20725;-80
2023/07/20 02:49:57;;;;;;;12.48;3.22;;;;;;;22.52;77.79;94815.97;5030372;28;20225;-81
2023/07/20 02:52:24;;;;;;;12.55;3.15;;;;;;;22.52;77.74;94816.75;5027273;28;20229;-81
2023/07/20 02:54:49;;;;;;;8.85;2.70;;;;;;;22.68;77.27;94814.81;5032479;28;20945;-81
2023/07/20 02:57:14;;;;;;;11.68;3.40;;;;;;;22.46;77.92;94812.53;5031266;28;20240;-81
2023/07/20 02:59:40;;;;;;;11.25;3.10;;;;;;;22.48;78.39;94822.91;5032080;28;20714;-81
2023/07/20 03:02:05;;;;;;;12.07;3.10;;;;;;;22.22;79.31;94822.25;5028385;28;20225;-81
2023/07/20 03:04:31;;;;;;;13.52;3.10;;;;;;;22.34;78.66;94825.38;5015387;28;20244;-82
2023/07/20 03:06:56;;;;;;;9.68;3.17;;;;;;;22.38;78.97;94818.44;5051062;28;20250;-82
2023/07/20 03:09:22;;;;;;;9.65;3.38;;;;;;;22.24;79.21;94820.09;5034033;28;20232;-82
2023/07/20 03:11:47;;;;;;;9.18;3.00;;;;;;;22.22;79.62;94822.25;5002633;28;20278;-81
2023/07/20 03:14:13;;;;;;;8.35;3.20;;;;;;;22.01;80.49;94818.88;5027511;28;20312;-81
2023/07/20 03:16:38;;;;;;;8.75;3.05;;;;;;;22.21;79.78;94830.53;5018892;28;20221;-84
2023/07/20 03:19:04;;;;;;;14.23;3.40;;;;;;;22.13;80.14;94831.91;5014591;28;20237;-81
2023/07/20 03:21:30;;;;;;;9.50;3.00;;;;;;;22.32;78.74;94832.88;5056494;28;20232;-80
2023/07/20 03:23:55;;;;;;;10.38;3.30;;;;;;;22.46;78.19;94833.88;5026430;28;20229;-81
2023/07/20 03:26:21;;;;;;;10.85;3.28;;;;;;;22.60;76.96;94836.72;5021190;28;20619;-81
2023/07/20 03:28:46;;;;;;;10.07;3.25;;;;;;;22.65;75.98;94847.41;5016998;28;20242;-80
2023/07/20 03:31:12;;;;;;;6.28;2.97;;;;;;;22.66;75.41;94847.09;5000356;28;20323;-81
2023/07/20 03:33:38;;;;;;;9.35;2.95;;;;;;;22.74;74.95;94843.84;5022883;28;20236;-80
2023/07/20 03:36:03;;;;;;;12.52;2.92;;;;;;;22.75;75.65;94842.81;5021660;28;21028;-81
2023/07/20 03:38:29;;;;;;;11.40;3.15;;;;;;;22.77;75.10;94845.97;5051540;28;20233;-82
2023/07/20 03:40:59;;;;;;;10.35;3.00;;;;;;;22.69;75.22;94841.22;4996941;28;20249;-81
2023/07/20 03:43:25;;;;;;;12.32;3.22;;;;;;;22.57;75.69;94846.06;5032066;28;20752;-82
2023/07/20 03:45:51;;;;;;;11.77;3.20;;;;;;;22.38;76.58;94845.09;5029815;28;20275;-80
2023/07/20 03:48:17;;;;;;;9.70;3.05;;;;;;;22.60;75.30;94842.84;5015665;28;20327;-82
2023/07/20 03:50:46;;;;;;;11.57;3.13;;;;;;;22.58;75.18;94844.19;5035168;28;20896;-81
2023/07/20 03:53:12;;;;;;;12.85;3.40;;;;;;;22.69;75.05;94848.44;5008437;28;20237;-81
2023/07/20 03:55:38;;;;;;;8.38;3.40;;;;;;;22.69;75.65;94841.22;5016645;28;20256;-81
2023/07/20 03:58:03;;;;;;;9.98;3.40;;;;;;;22.73;75.59;94844.16;5024973;28;20225;-81
2023/07/20 04:00:29;;;;;;;10.07;3.00;;;;;;;22.64;75.92;94854.59;5010094;28;20237;-82
2023/07/20 04:02:54;;;;;;;12.23;3.72;;;;;;;22.82;75.37;94857.69;5016048;28;20226;-82
2023/07/20 04:05:20;;;;;;;10.70;3.40;;;;;;;22.81;75.42;94854.22;5031227;28;20320;-81
2023/07/20 04:07:45;;;;;;;8.77;3.30;;;;;;;22.64;76.21;94854.59;5053705;28;20269;-81
2023/07/20 04:10:11;;;;;;;12.05;3.35;;;;;;;22.51;76.77;94841.84;5031759;28;20228;-81
2023/07/20 04:12:36;;;;;;;11.07;3.53;;;;;;;22.34;77.59;94845.94;5010280;28;20840;-81
2023/07/20 04:15:03;;;;;;;11.73;3.53;;;;;;;22.25;78.46;94853.72;5040076;28;20221;-81
2023/07/20 04:17:29;;;;;;;13.63;3.78;;;;;;;22.14;79.18;94842.28;5037369;28;20721;-81
2023/07/20 04:19:55;;;;;;;12.25;3.50;;;;;;;22.30;79.30;94843.03;5023575;28;20230;-82
2023/07/20 04:22:21;;;;;;;10.00;3.72;;;;;;;22.38;78.87;94826.44;4998994;28;20227;-81
2023/07/20 04:24:46;;;;;;;10.10;3.50;;;;;;;22.76;77.45;94830.22;5029212;28;20243;-82
2023/07/20 04:27:12;;;;;;;9.23;3.47;;;;;;;22.92;76.55;94836.28;5023509;28;20236;-83
2023/07/20 04:29:37;;;;;;;11.50;3.22;;;;;;;22.78;77.29;94833.44;5035949;28;20316;-81
2023/07/20 04:32:03;;;;;;;18.20;3.63;;;;;;;22.86;76.93;94832.84;5041311;28;20633;-81
2023/07/20 04:34:28;;;;;;;14.40;3.75;;;;;;;22.91;76.39;94837.34;5018687;28;20332;-79
2023/07/20 04:36:54;;;;;;;13.88;3.72;;;;;;;23.05;75.42;94830.28;5007070;28;20311;-82
2023/07/20 04:39:19;;;;;;;16.38;3.70;;;;;;;22.94;75.50;94829.59;5033613;28;20623;-81
2023/07/20 04:41:45;;;;;;;16.02;4.28;;;;;;;23.03;75.49;94814.56;5003445;28;20237;-81
2023/07/20 04:44:10;;;;;;;11.02;4.10;;;;;;;23.11;75.71;94821.19;5016207;28;20237;-82
2023/07/20 04:46:36;;;;;;;11.25;3.83;;;;;;;23.22;74.78;94825.34;5021903;28;20233;-82
2023/07/20 04:49:01;;;;;;;14.57;4.03;;;;;;;23.23;74.80;94830.44;5038102;28;20225;-81
2023/07/20 04:51:27;;;;;;;8.95;3.97;;;;;;;23.17;75.42;94825.38;5023105;28;20224;-78
2023/07/20 04:53:52;;;;;;;11.57;3.75;;;;;;;23.28;75.00;94818.91;5033293;28;20585;-80
2023/07/20 04:56:18;;;;;;;12.50;4.20;;;;;;;23.52;73.82;94824.31;5034709;28;20221;-80
2023/07/20 04:58:43;;;;;;;10.32;3.97;;;;;;;23.44;73.46;94815.03;5049152;28;20229;-82
2023/07/20 05:01:09;;;;;;;15.25;4.30;;;;;;;23.26;74.24;94813.03;5049322;28;20252;-81
2023/07/20 05:03:34;;;;;;;14.50;4.10;;;;;;;23.33;74.24;94822.31;5065980;28;20233;-81
2023/07/20 05:06:00;;;;;;;13.30;4.13;;;;;;;23.45;74.16;94825.44;5025019;28;20229;-82
2023/07/20 05:08:25;;;;;;;13.73;3.95;;;;;;;23.53;73.19;94817.88;5032364;28;20241;-81
2023/07/20 05:10:51;;;;;;;10.27;4.15;;;;;;;23.61;73.46;94820.75;5013357;28;20218;-77
2023/07/20 05:13:16;;;;;;;15.65;3.88;;;;;;;24.02;72.64;94824.59;5023120;28;20256;-81
2023/07/20 05:15:42;;;;;;;9.98;4.07;;;;;;;24.20;71.44;94835.63;4996481;28;20229;-81
2023/07/20 05:18:08;;;;;;;12.32;4.43;;;;;;;24.11;71.77;94835.47;5035786;28;20239;-80
2023/07/20 05:20:34;;;;;;;16.77;4.20;;;;;;;24.52;68.83;94833.06;5034869;28;20391;-81
2023/07/20 05:23:00;;;;;;;11.43;4.15;;;;;;;24.19;70.91;94829.50;5026962;28;20256;-80
2023/07/20 05:25:26;;;;;;;13.70;4.40;;;;;;;24.00;71.27;94824.03;5023336;28;20240;-78
2023/07/20 05:27:52;;;;;;;13.68;4.30;;;;;;;23.96;70.45;94830.25;5040519;28;20607;-80
2023/07/20 05:30:18;;;;;;;12.95;4.13;;;;;;;24.02;70.22;94832.59;5020176;28;20225;-81
2023/07/20 05:32:46;;;;;;;10.48;3.97;;;;;;;24.57;68.73;94838.38;5041100;28;20236;-80
2023/07/20 05:35:11;;;;;;;14.48;4.50;;;;;;;24.52;68.06;94836.56;5016703;28;20248;-81
2023/07/20 05:37:38;;;;;;;11.45;4.63;;;;;;;24.32;70.10;94836.00;5033492;28;20230;-79
2023/07/20 05:40:04;;;;;;;15.30;4.28;;;;;;;24.21;71.10;94831.88;5033694;28;20236;-81
2023/07/20 05:42:30;;;;;;;11.43;4.15;;;;;;;24.55;69.43;94833.28;5039155;28;20229;-79
2023/07/20 05:44:56;;;;;;;13.02;4.20;;;;;;;24.47;69.45;94844.66;5038393;28;20217;-81
2023/07/20 05:47:21;;;;;;;15.50;4.40;;;;;;;24.53;68.96;94848.03;5056826;28;20283;-81
2023/07/20 05:49:47;;;;;;;9.75;4.18;;;;;;;24.41;68.52;94850.34;5029122;28;20224;-81
2023/07/20 05:52:13;;;;;;;16.23;4.68;;;;;;;24.57;67.68;94849.06;5036548;28;20236;-80
2023/07/20 05:54:38;;;;;;;12.73;4.20;;;;;;;24.48;68.13;94854.25;5055541;28;20264;-80
2023/07/20 05:57:04;;;;;;;12.70;4.07;;;;;;;24.59;68.03;94853.06;5019175;28;20222;-82
2023/07/20 05:59:30;;;;;;;18.98;4.88;;;;;;;24.35;69.24;94848.81;5015216;28;20283;-80
2023/07/20 06:01:55;;;;;;;14.30;3.97;;;;;;;24.45;68.95;94844.16;5024671;28;20220;-82
2023/07/20 06:04:21;;;;;;;13.10;4.70;;;;;;;24.51;68.32;94831.47;5037938;28;20226;-81
2023/07/20 06:06:46;;;;;;;15.00;4.40;;;;;;;24.51;68.87;94836.81;5005508;28;20282;-81
2023/07/20 06:09:12;;;;;;;14.02;4.40;;;;;;;24.52;67.31;94838.44;5001476;28;20317;-81
2023/07/20 06:11:40;;;;;;;15.15;4.30;;;;;;;24.64;67.15;94841.47;5018860;28;20228;-82
2023/07/20 06:14:06;;;;;;;15.02;4.53;;;;;;;24.72;67.74;94843.47;5035180;28;20239;-82
2023/07/20 06:16:31;;;;;;;14.00;4.20;;;;;;;24.72;68.71;94843.47;5011983;28;20225;-81
2023/07/20 06:18:57;;;;;;;14.60;4.07;;;;;;;24.54;67.30;94838.94;4998423;28;20615;-82
2023/07/20 06:21:22;;;;;;;13.02;4.35;;;;;;;24.60;68.18;94832.41;5016096;28;20313;-82
2023/07/20 06:23:48;;;;;;;12.30;4.00;;;;;;;24.60;67.01;94827.84;5035333;28;20818;-82
2023/07/20 06:26:13;;;;;;;10.90;4.30;;;;;;;24.72;67.79;94817.50;5015255;28;20233;-81
2023/07/20 06:28:39;;;;;;;14.10;4.43;;;;;;;24.70;68.51;94819.69;5029165;28;20236;-81
2023/07/20 06:31:04;;;;;;;15.02;4.20;;;;;;;24.83;67.65;94810.16;4989189;28;20226;-82
2023/07/20 06:33:30;;;;;;;13.52;4.93;;;;;;;24.83;66.60;94815.53;5013018;28;20233;-83
2023/07/20 06:35:56;;;;;;;14.77;4.57;;;;;;;25.01;66.73;94825.41;5030321;28;20217;-83
2023/07/20 06:38:23;;;;;;;19.60;5.32;;;;;;;24.99;65.68;94821.44;5006549;28;20320;-82
2023/07/20 06:40:49;;;;;;;16.20;4.90;;;;;;;25.10;65.42;94812.16;4995604;28;20273;-80
2023/07/20 06:43:14;;;;;;;17.02;4.97;;;;;;;25.12;66.47;94823.38;4997212;28;20344;-81
2023/07/20 06:45:40;;;;;;;16.60;5.35;;;;;;;25.14;66.32;94816.66;5032201;28;20236;-80
2023/07/20 06:48:06;;;;;;;13.10;5.10;;;;;;;25.15;65.67;94820.13;5022720;28;20229;-81
2023/07/20 06:50:31;;;;;;;13.85;5.30;;;;;;;25.13;66.77;94822.28;4999026;28;20323;-80
2023/07/20 06:52:58;;;;;;;19.23;5.13;;;;;;;25.02;65.91;94816.31;5014381;28;20323;-81
2023/07/20 06:55:24;;;;;;;15.65;5.18;;;;;;;25.28;65.42;94819.34;5034797;28;20224;-82
2023/07/20 06:58:10;;;;;;;15.75;5.45;;;;;;;25.39;65.32;94826.13;5016834;28;20312;-82
2023/07/20 07:00:36;;;;;;;20.65;5.32;;;;;;;25.52;65.06;94828.09;4994475;28;20607;-81
2023/07/20 07:03:02;;;;;;;15.82;5.50;;;;;;;25.62;64.93;94846.69;4990619;28;20309;-82
2023/07/20 07:05:27;;;;;;;15.48;5.78;;;;;;;25.72;64.00;94854.53;5003156;28;20233;-83
2023/07/20 07:07:53;;;;;;;15.65;5.15;;;;;;;25.84;63.67;94854.84;5052696;28;20225;-80
2023/07/20 07:10:18;;;;;;;15.98;5.60;;;;;;;25.73;63.36;94847.28;5018296;28;20225;-81
2023/07/20 07:12:44;;;;;;;18.50;5.38;;;;;;;25.69;63.94;94851.66;5015988;28;20248;-83
2023/07/20 07:15:10;;;;;;;13.68;5.10;;;;;;;25.56;62.87;94863.13;5018334;28;20252;-80
2023/07/20 07:17:36;;;;;;;19.20;4.93;;;;;;;25.62;63.05;94870.03;5016724;28;20248;-83
2023/07/20 07:20:01;;;;;;;15.57;5.00;;;;;;;25.65;62.60;94880.94;5033238;28;20228;-80
2023/07/20 07:22:27;;;;;;;16.20;4.93;;;;;;;25.70;64.35;94888.91;5004639;28;20229;-82
2023/07/20 07:24:53;;;;;;;12.85;4.72;;;;;;;25.79;62.09;94894.41;5023293;28;21005;-80
2023/07/20 07:27:19;;;;;;;18.80;4.40;;;;;;;25.95;61.41;94895.72;5027252;28;20274;-83
2023/07/20 07:29:44;;;;;;;16.75;4.50;;;;;;;25.90;61.78;94898.47;5019502;28;20324;-82
2023/07/20 07:32:11;;;;;;;13.93;4.40;;;;;;;25.95;62.53;94896.50;5030791;28;20955;-79
2023/07/20 07:34:36;;;;;;;17.00;4.82;;;;;;;26.00;63.05;94891.06;5009911;28;20650;-81
2023/07/20 07:37:02;;;;;;;12.10;4.28;;;;;;;25.98;61.86;94882.47;5006239;28;20313;-80
2023/07/20 07:39:29;;;;;;;13.05;4.72;;;;;;;26.01;61.62;94871.16;5028881;28;20308;-79
2023/07/20 07:41:55;;;;;;;14.43;4.45;;;;;;;26.08;60.74;94866.19;5015379;28;20227;-79
2023/07/20 07:44:21;;;;;;;14.85;4.85;;;;;;;26.18;61.70;94875.19;5008989;28;20229;-82
2023/07/20 07:46:46;;;;;;;17.33;4.93;;;;;;;26.23;61.91;94883.13;5033289;28;20236;-81
2023/07/20 07:49:12;;;;;;;20.60;5.00;;;;;;;26.22;62.11;94870.81;4999433;28;20885;-83
2023/07/20 07:51:37;;;;;;;19.00;4.85;;;;;;;26.37;61.82;94857.06;5009846;28;20240;-80
2023/07/20 07:54:03;;;;;;;15.13;4.78;;;;;;;26.46;61.54;94831.16;5036870;28;20903;-82
2023/07/20 07:56:29;;;;;;;12.75;4.68;;;;;;;26.46;60.78;94839.97;5017080;28;20228;-83
2023/07/20 07:58:54;;;;;;;11.35;4.80;;;;;;;26.54;60.39;94850.00;5020758;28;20638;-83
2023/07/20 08:01:20;;;;;;;50.78;5.47;;;;;;;26.55;60.37;94848.94;5007503;28;20225;-81
2023/07/20 08:03:48;;;;;;;18.15;4.97;;;;;;;26.50;59.77;94840.97;5037312;28;23484;-84
2023/07/20 08:06:14;;;;;;;15.13;4.72;;;;;;;26.62;61.33;94849.31;5037174;28;20259;-83
2023/07/20 08:08:40;;;;;;;15.50;4.88;;;;;;;26.73;59.69;94874.03;5018348;28;20240;-83
2023/07/20 08:11:05;;;;;;;16.23;4.68;;;;;;;26.87;59.92;94888.28;5033955;28;20609;-82
2023/07/20 08:13:31;;;;;;;15.32;4.45;;;;;;;26.97;59.19;94890.75;5053241;28;20745;-80
2023/07/20 08:15:57;;;;;;;50.28;5.70;;;;;;;26.90;60.11;94893.03;5055057;28;20236;-80
2023/07/20 08:18:22;;;;;;;11.73;4.32;;;;;;;27.07;60.21;94879.78;5024756;28;20229;-80
2023/07/20 08:20:49;;;;;;;14.60;4.30;;;;;;;27.20;59.99;94880.84;5053655;28;20229;-81
2023/07/20 08:23:14;;;;;;;18.17;4.65;;;;;;;27.34;60.76;94887.75;5038071;28;20311;-80
2023/07/20 08:25:43;;;;;;;15.30;4.63;;;;;;;27.41;61.15;94894.63;5034198;28;20264;-79
2023/07/20 08:28:15;;;;;;;15.52;4.00;;;;;;;27.39;60.33;94894.94;5019687;28;20228;-82
2023/07/20 08:30:44;;;;;;;12.30;3.50;;;;;;;27.18;58.28;94894.56;5022649;28;20251;-80
2023/07/20 08:33:10;;;;;;;14.43;3.60;;;;;;;27.15;57.70;94889.00;5015161;28;20295;-78
2023/07/20 08:35:36;;;;;;;13.05;3.60;;;;;;;27.08;58.18;94894.00;5014344;28;20221;-78
2023/07/20 08:38:02;;;;;;;13.75;3.63;;;;;;;27.31;56.25;94903.69;5034605;28;20229;-81
2023/07/20 08:40:27;;;;;;;12.50;3.22;;;;;;;27.50;55.15;94896.25;5029883;28;20321;-80
2023/07/20 08:42:54;;;;;;;15.18;3.50;;;;;;;27.61;53.93;94900.28;5040831;28;20653;-81
2023/07/20 08:45:20;;;;;;;11.57;3.28;;;;;;;27.56;52.37;94902.31;5039044;28;20232;-80
2023/07/20 08:47:46;;;;;;;16.48;3.10;;;;;;;27.52;52.77;94891.38;5013014;28;20225;-82
2023/07/20 08:50:11;;;;;;;13.88;3.67;;;;;;;27.59;52.30;94893.63;5050688;28;20225;-80
2023/07/20 08:52:37;;;;;;;14.07;3.30;;;;;;;27.65;52.39;94882.44;5017147;28;20238;-79
2023/07/20 08:55:06;;;;;;;13.80;3.25;;;;;;;27.84;51.13;94893.00;5031824;28;20225;-80
2023/07/20 08:57:32;;;;;;;13.48;3.03;;;;;;;27.88;51.19;94896.66;5019413;28;20228;-79
2023/07/20 08:59:58;;;;;;;13.88;3.05;;;;;;;27.85;50.40;94884.59;5023239;28;20224;-80
2023/07/20 09:02:24;;;;;;;14.52;3.72;;;;;;;27.73;51.18;94883.59;5013728;28;20741;-79
2023/07/20 09:04:49;;;;;;;13.07;3.13;;;;;;;27.77;50.60;94879.19;5017822;28;20827;-79
2023/07/20 09:07:15;;;;;;;8.70;2.95;;;;;;;28.03;49.23;94877.47;5030442;28;20232;-82
2023/07/20 09:09:43;;;;;;;10.70;3.20;;;;;;;28.06;49.59;94866.09;5040545;28;20252;-81
2023/07/20 09:12:14;;;;;;;10.90;3.03;;;;;;;27.85;49.69;94870.34;5035917;28;20764;-78
2023/07/20 09:14:39;;;;;;;9.63;2.88;;;;;;;27.83;50.48;94873.38;5020612;28;20233;-81
2023/07/20 09:17:05;;;;;;;14.93;3.33;;;;;;;28.15;49.95;94876.88;5009296;28;20309;-80
2023/07/20 09:19:31;;;;;;;9.25;3.05;;;;;;;28.13;49.90;94865.63;5040127;28;20686;-79
2023/07/20 09:21:56;;;;;;;9.45;3.13;;;;;;;28.42;48.89;94863.19;5015411;28;20236;-82
2023/07/20 09:24:22;;;;;;;10.40;3.00;;;;;;;28.36;49.52;94851.78;5040495;28;20278;-82
2023/07/20 09:26:48;;;;;;;12.27;3.40;;;;;;;28.60;49.08;94849.50;5020001;28;20226;-81
2023/07/20 09:29:14;;;;;;;14.32;3.80;;;;;;;28.77;49.22;94846.03;5020199;28;20233;-80
2023/07/20 09:31:40;;;;;;;12.98;3.10;;;;;;;28.88;48.23;94849.19;5026196;28;20752;-80
2023/07/20 09:34:06;;;;;;;14.35;3.20;;;;;;;28.98;48.74;94849.69;5022304;28;20260;-79
2023/07/20 09:36:36;;;;;;;11.07;3.40;;;;;;;29.13;47.96;94848.44;5005172;28;20263;-83
2023/07/20 09:39:02;;;;;;;14.93;3.30;;;;;;;29.17;47.06;94850.16;5022897;28;20236;-79
2023/07/20 09:41:27;;;;;;;15.27;3.50;;;;;;;29.29;47.53;94850.34;5018261;28;20236;-79
2023/07/20 09:43:53;;;;;;;35.47;4.00;;;;;;;29.36;47.13;94849.88;5010411;28;20888;-84
2023/07/20 09:46:20;;;;;;;9.02;3.17;;;;;;;29.49;44.91;94848.91;5002510;28;20234;-86
2023/07/20 09:48:53;;;;;;;10.02;2.85;;;;;;;29.53;44.21;94844.47;5017328;28;20249;-83
2023/07/20 09:51:21;;;;;;;12.25;3.00;;;;;;;29.58;43.29;94846.19;5037409;28;20706;-80
2023/07/20 09:53:47;;;;;;;10.70;3.05;;;;;;;29.69;43.57;94832.03;5000500;28;20282;-80
2023/07/20 09:56:12;;;;;;;11.25;3.28;;;;;;;29.68;44.17;94824.28;5031683;28;20228;-80
2023/07/20 09:58:38;;;;;;;11.95;3.25;;;;;;;29.79;43.06;94814.72;4995961;28;20312;-81
2023/07/20 10:01:04;;;;;;;9.07;3.17;;;;;;;29.63;43.86;94809.03;5011817;28;20228;-72
2023/07/20 10:03:30;;;;;;;8.10;3.08;;;;;;;29.41;44.33;94809.25;5013896;28;20232;-72
2023/07/20 10:06:03;;;;;;;9.98;2.97;;;;;;;29.21;43.96;94809.91;5016087;28;20761;-71
2023/07/20 10:08:29;;;;;;;15.43;3.10;;;;;;;29.19;45.25;94812.91;4999225;28;20237;-71
2023/07/20 10:10:55;;;;;;;8.65;3.13;;;;;;;29.16;44.55;94818.91;5017022;28;20225;-71
2023/07/20 10:13:24;;;;;;;8.05;2.80;;;;;;;29.15;44.15;94817.34;5008135;28;20229;-71
2023/07/20 10:15:50;;;;;;;7.95;3.00;;;;;;;28.94;44.14;94821.78;5003993;28;20233;-71
2023/07/20 10:18:28;;;;;;;10.68;3.00;;;;;;;28.68;45.61;94815.59;5007762;28;20239;-72
2023/07/20 10:20:54;;;;;;;10.27;2.92;;;;;;;28.89;45.22;94823.84;4994187;28;20219;-70
2023/07/20 10:23:19;;;;;;;11.68;2.92;;;;;;;28.83;44.78;94825.88;4995277;28;20239;-71
2023/07/20 10:25:46;;;;;;;7.07;2.97;;;;;;;28.87;45.40;94821.47;5014332;28;20222;-72
2023/07/20 10:28:11;;;;;;;12.18;3.17;;;;;;;28.92;45.85;94837.50;5007544;28;20313;-70
2023/07/20 10:30:36;;;;;;;8.35;2.83;;;;;;;28.77;45.89;94824.47;5020874;28;20227;-71
2023/07/20 10:33:05;;;;;;;12.13;2.80;;;;;;;28.75;45.78;94813.22;4994283;28;20231;-70
2023/07/20 10:35:31;;;;;;;9.27;2.97;;;;;;;28.80;46.63;94791.50;5009475;28;20230;-70
2023/07/20 10:38:00;;;;;;;8.52;2.85;;;;;;;28.70;46.30;94808.00;5009525;28;20297;-71
2023/07/20 10:40:27;;;;;;;11.63;3.17;;;;;;;28.70;45.59;94826.84;5025677;28;20230;-71
2023/07/20 10:43:09;;;;;;;8.10;2.83;;;;;;;28.61;44.36;94818.72;4998668;28;20241;-70
2023/07/20 10:45:35;;;;;;;9.15;2.83;;;;;;;28.69;45.04;94825.25;5012167;28;20223;-71
2023/07/20 10:48:04;;;;;;;10.60;3.10;;;;;;;28.66;44.24;94788.94;5010320;28;20240;-72
2023/07/20 10:50:30;;;;;;;6.82;2.63;;;;;;;28.54;45.21;94737.56;4991590;28;20227;-71
2023/07/20 10:53:15;;;;;;;11.93;2.80;;;;;;;28.38;46.07;94758.00;5006768;28;20230;-72
2023/07/20 10:55:41;;;;;;;8.60;2.95;;;;;;;28.49;45.69;94790.81;5008946;28;20230;-72
2023/07/20 10:58:17;;;;;;;10.57;3.60;;;;;;;28.68;45.57;94785.97;5024347;28;20249;-72
2023/07/20 11:00:59;;;;;;;8.07;2.70;;;;;;;28.78;45.99;94769.47;5023779;28;20797;-71
2023/07/20 11:03:36;;;;;;;8.85;2.92;;;;;;;28.84;44.93;94765.50;5009840;28;20230;-70
2023/07/20 11:06:23;;;;;;;7.03;2.85;;;;;;;28.83;44.02;94749.66;5006930;28;20227;-72
2023/07/20 11:08:49;;;;;;;14.48;3.10;;;;;;;28.88;46.10;94747.59;5011807;28;20812;-73
2023/07/20 11:11:27;;;;;;;15.55;3.42;;;;;;;29.13;45.72;94740.59;4990909;28;20231;-72
2023/07/20 11:13:59;;;;;;;10.63;3.00;;;;;;;29.28;45.55;94746.28;5004236;28;20319;-72
2023/07/20 11:16:44;;;;;;;7.78;3.13;;;;;;;29.30;44.78;94749.44;5026404;28;20277;-72
2023/07/20 11:19:20;;;;;;;9.45;3.35;;;;;;;29.34;44.73;94753.09;5026741;28;20238;-70
2023/07/20 11:21:50;;;;;;;10.30;3.22;;;;;;;29.38;45.82;94749.78;4986395;28;20384;-71
2023/07/20 11:24:16;;;;;;;9.57;3.05;;;;;;;29.46;45.03;94747.03;5006904;28;20233;-72
2023/07/20 11:26:48;;;;;;;9.68;3.00;;;;;;;29.62;45.93;94739.19;5021555;28;20233;-73